createdAt,value
2022-07-27T00:00:35.975Z,0.00
2022-07-27T00:01:35.861Z,0.00
2022-07-27T00:02:35.854Z,0.00
2022-07-27T00:03:35.743Z,0.00
2022-07-27T00:04:35.740Z,0.00
2022-07-27T00:05:35.875Z,0.00
2022-07-27T00:06:35.582Z,0.00
2022-07-27T00:07:35.486Z,0.00
2022-07-27T00:08:35.466Z,0.00
2022-07-27T00:09:35.339Z,0.00
2022-07-27T00:10:35.292Z,0.00
2022-07-27T00:11:35.191Z,0.00
2022-07-27T00:12:35.139Z,0.00
2022-07-27T00:13:35.076Z,0.00
2022-07-27T00:14:35.010Z,0.00
2022-07-27T00:15:34.953Z,0.00
2022-07-27T00:16:34.984Z,0.00
2022-07-27T00:17:34.831Z,0.00
2022-07-27T00:18:34.771Z,0.00
2022-07-27T00:19:34.738Z,0.00
2022-07-27T00:20:34.651Z,0.00
2022-07-27T00:21:34.586Z,0.00
2022-07-27T00:22:34.531Z,0.00
2022-07-27T00:23:34.469Z,0.00
2022-07-27T00:24:34.412Z,0.00
2022-07-27T00:25:34.349Z,0.00
2022-07-27T00:26:34.287Z,0.00
2022-07-27T00:27:34.224Z,0.00
2022-07-27T00:28:34.169Z,0.00
2022-07-27T00:29:34.149Z,0.00
2022-07-27T00:30:34.043Z,0.00
2022-07-27T00:31:34.108Z,0.00
2022-07-27T00:32:33.923Z,0.00
2022-07-27T00:33:33.861Z,0.00
2022-07-27T00:34:33.807Z,0.00
2022-07-27T00:35:33.750Z,0.00
2022-07-27T00:36:33.685Z,0.00
2022-07-27T00:37:33.622Z,0.00
2022-07-27T00:38:33.575Z,0.00
2022-07-27T00:39:33.505Z,0.00
2022-07-27T00:40:33.442Z,0.00
2022-07-27T00:41:33.408Z,0.00
2022-07-27T00:42:33.321Z,0.00
2022-07-27T00:43:33.257Z,0.00
2022-07-27T00:44:33.203Z,0.00
2022-07-27T00:45:33.139Z,0.00
2022-07-27T00:46:33.133Z,0.00
2022-07-27T00:47:33.019Z,0.00
2022-07-27T00:48:33.040Z,0.00
2022-07-27T00:49:32.895Z,0.00
2022-07-27T00:50:32.834Z,0.00
2022-07-27T00:51:32.776Z,0.00
2022-07-27T00:52:32.715Z,0.00
2022-07-27T00:53:32.657Z,0.00
2022-07-27T00:54:32.590Z,0.00
2022-07-27T00:55:32.552Z,0.00
2022-07-27T00:56:32.475Z,0.00
2022-07-27T00:57:32.447Z,0.00
2022-07-27T00:58:32.351Z,0.00
2022-07-27T00:59:32.349Z,0.00
2022-07-27T01:00:32.225Z,0.00
2022-07-27T01:01:32.371Z,0.00
2022-07-27T01:02:32.191Z,0.00
2022-07-27T01:03:32.046Z,0.00
2022-07-27T01:04:31.989Z,0.00
2022-07-27T01:05:36.304Z,0.00
2022-07-27T01:06:31.862Z,0.00
2022-07-27T01:07:31.800Z,0.00
2022-07-27T01:08:31.751Z,0.00
2022-07-27T01:09:31.684Z,0.00
2022-07-27T01:10:31.618Z,0.00
2022-07-27T01:11:31.563Z,0.00
2022-07-27T01:12:31.509Z,0.00
2022-07-27T01:13:31.436Z,0.00
2022-07-27T01:14:31.376Z,0.00
2022-07-27T01:15:31.321Z,0.00
2022-07-27T01:16:31.277Z,0.00
2022-07-27T01:17:31.190Z,0.00
2022-07-27T01:18:31.136Z,0.00
2022-07-27T01:19:31.072Z,0.00
2022-07-27T01:20:31.009Z,0.00
2022-07-27T01:21:33.057Z,0.00
2022-07-27T01:22:30.891Z,0.00
2022-07-27T01:23:30.827Z,0.00
2022-07-27T01:24:30.764Z,0.00
2022-07-27T01:25:30.707Z,0.00
2022-07-27T01:26:30.651Z,0.00
2022-07-27T01:27:30.581Z,0.00
2022-07-27T01:28:30.525Z,0.00
2022-07-27T01:29:30.461Z,0.00
2022-07-27T01:30:30.632Z,0.00
2022-07-27T01:31:30.385Z,0.00
2022-07-27T01:32:30.284Z,0.00
2022-07-27T01:33:30.221Z,0.00
2022-07-27T01:34:30.157Z,0.00
2022-07-27T01:35:30.092Z,0.00
2022-07-27T01:36:30.036Z,0.00
2022-07-27T01:37:29.981Z,0.00
2022-07-27T01:38:29.906Z,0.00
2022-07-27T01:39:29.848Z,0.00
2022-07-27T01:40:29.792Z,0.00
2022-07-27T01:41:29.735Z,0.00
2022-07-27T01:42:29.672Z,0.00
2022-07-27T01:43:29.607Z,0.00
2022-07-27T01:44:29.542Z,0.00
2022-07-27T01:45:29.481Z,0.00
2022-07-27T01:46:29.460Z,0.00
2022-07-27T01:47:29.357Z,0.00
2022-07-27T01:48:29.294Z,0.00
2022-07-27T01:49:29.327Z,0.00
2022-07-27T01:50:29.173Z,0.00
2022-07-27T01:51:29.108Z,0.00
2022-07-27T01:52:29.052Z,0.00
2022-07-27T01:53:28.989Z,0.00
2022-07-27T01:54:28.928Z,0.00
2022-07-27T01:55:35.781Z,0.00
2022-07-27T01:56:28.806Z,0.00
2022-07-27T01:57:28.745Z,0.00
2022-07-27T01:58:28.690Z,0.00
2022-07-27T01:59:28.620Z,0.00
2022-07-27T02:00:28.568Z,0.00
2022-07-27T02:01:28.527Z,0.00
2022-07-27T02:02:28.435Z,0.00
2022-07-27T02:03:28.376Z,0.00
2022-07-27T02:04:28.318Z,0.00
2022-07-27T02:05:28.325Z,0.00
2022-07-27T02:06:28.187Z,0.00
2022-07-27T02:07:28.123Z,0.00
2022-07-27T02:08:28.069Z,0.00
2022-07-27T02:09:28.001Z,0.00
2022-07-27T02:10:27.942Z,0.00
2022-07-27T02:11:27.879Z,0.00
2022-07-27T02:12:27.820Z,0.00
2022-07-27T02:13:27.777Z,0.00
2022-07-27T02:14:27.699Z,0.00
2022-07-27T02:15:27.849Z,0.00
2022-07-27T02:16:27.643Z,0.00
2022-07-27T02:17:29.702Z,0.00
2022-07-27T02:18:36.041Z,0.00
2022-07-27T02:19:27.396Z,0.00
2022-07-27T02:20:27.337Z,0.00
2022-07-27T02:21:27.264Z,0.00
2022-07-27T02:22:27.208Z,0.00
2022-07-27T02:23:27.143Z,0.00
2022-07-27T02:24:27.086Z,0.00
2022-07-27T02:25:27.025Z,0.00
2022-07-27T02:26:26.965Z,0.00
2022-07-27T02:27:26.893Z,0.00
2022-07-27T02:28:26.834Z,0.00
2022-07-27T02:29:26.780Z,0.00
2022-07-27T02:30:26.709Z,0.00
2022-07-27T02:31:26.661Z,0.00
2022-07-27T02:32:26.659Z,0.00
2022-07-27T02:33:26.529Z,0.00
2022-07-27T02:34:26.474Z,0.00
2022-07-27T02:35:26.437Z,0.00
2022-07-27T02:36:26.338Z,0.00
2022-07-27T02:37:26.277Z,0.00
2022-07-27T02:38:26.221Z,0.00
2022-07-27T02:39:26.155Z,0.00
2022-07-27T02:40:26.093Z,0.00
2022-07-27T02:41:26.034Z,0.00
2022-07-27T02:42:25.971Z,0.00
2022-07-27T02:43:25.919Z,0.00
2022-07-27T02:44:25.848Z,0.00
2022-07-27T02:45:25.781Z,0.00
2022-07-27T02:46:25.763Z,0.00
2022-07-27T02:47:25.661Z,0.00
2022-07-27T02:48:25.598Z,0.00
2022-07-27T02:49:25.643Z,0.00
2022-07-27T02:50:25.479Z,0.00
2022-07-27T02:51:25.411Z,0.00
2022-07-27T02:52:25.351Z,0.00
2022-07-27T02:53:25.294Z,0.00
2022-07-27T02:54:25.231Z,0.00
2022-07-27T02:55:25.164Z,0.00
2022-07-27T02:56:26.711Z,0.00
2022-07-27T02:57:25.042Z,0.00
2022-07-27T02:58:24.983Z,0.00
2022-07-27T02:59:24.914Z,0.00
2022-07-27T03:00:24.855Z,0.00
2022-07-27T03:01:24.827Z,0.00
2022-07-27T03:02:24.729Z,0.00
2022-07-27T03:03:24.677Z,0.00
2022-07-27T03:04:24.668Z,0.00
2022-07-27T03:05:24.565Z,0.00
2022-07-27T03:06:24.495Z,0.00
2022-07-27T03:07:24.419Z,0.00
2022-07-27T03:08:24.359Z,0.00
2022-07-27T03:09:32.939Z,0.00
2022-07-27T03:10:24.236Z,0.00
2022-07-27T03:11:24.178Z,0.00
2022-07-27T03:12:24.111Z,0.00
2022-07-27T03:13:24.050Z,0.00
2022-07-27T03:14:23.986Z,0.00
2022-07-27T03:15:23.922Z,0.00
2022-07-27T03:16:23.923Z,0.00
2022-07-27T03:17:23.819Z,0.00
2022-07-27T03:18:23.739Z,0.00
2022-07-27T03:19:28.287Z,0.00
2022-07-27T03:20:23.632Z,0.00
2022-07-27T03:21:23.554Z,0.00
2022-07-27T03:22:23.495Z,0.00
2022-07-27T03:23:23.432Z,0.00
2022-07-27T03:24:23.377Z,0.00
2022-07-27T03:25:23.319Z,0.00
2022-07-27T03:26:23.252Z,0.00
2022-07-27T03:27:23.183Z,0.00
2022-07-27T03:28:23.131Z,0.00
2022-07-27T03:29:23.062Z,0.00
2022-07-27T03:30:23.674Z,0.00
2022-07-27T03:31:22.998Z,0.00
2022-07-27T03:32:22.876Z,0.00
2022-07-27T03:33:22.808Z,0.00
2022-07-27T03:34:22.743Z,0.00
2022-07-27T03:35:22.685Z,5.63
2022-07-27T03:36:22.624Z,5.63
2022-07-27T03:37:22.561Z,5.63
2022-07-27T03:38:22.528Z,5.63
2022-07-27T03:39:22.430Z,5.63
2022-07-27T03:40:22.373Z,5.63
2022-07-27T03:41:22.308Z,5.63
2022-07-27T03:42:22.245Z,5.63
2022-07-27T03:43:22.185Z,5.63
2022-07-27T03:44:22.151Z,5.63
2022-07-27T03:45:22.065Z,5.63
2022-07-27T03:46:22.057Z,5.63
2022-07-27T03:47:21.941Z,5.63
2022-07-27T03:48:21.875Z,5.63
2022-07-27T03:49:21.868Z,5.63
2022-07-27T03:50:21.765Z,5.63
2022-07-27T03:51:21.687Z,5.63
2022-07-27T03:52:21.629Z,11.25
2022-07-27T03:53:21.573Z,11.25
2022-07-27T03:54:21.507Z,11.25
2022-07-27T03:55:21.446Z,11.25
2022-07-27T03:56:21.378Z,11.25
2022-07-27T03:57:21.315Z,11.25
2022-07-27T03:58:21.258Z,11.25
2022-07-27T03:59:21.196Z,11.25
2022-07-27T04:00:21.135Z,16.88
2022-07-27T04:01:21.167Z,16.88
2022-07-27T04:02:21.060Z,16.88
2022-07-27T04:03:20.943Z,16.88
2022-07-27T04:04:20.880Z,16.88
2022-07-27T04:05:20.816Z,16.88
2022-07-27T04:06:20.753Z,16.88
2022-07-27T04:07:20.693Z,22.50
2022-07-27T04:08:20.631Z,22.50
2022-07-27T04:09:20.566Z,22.50
2022-07-27T04:10:20.511Z,22.50
2022-07-27T04:11:20.451Z,22.50
2022-07-27T04:12:20.381Z,22.50
2022-07-27T04:13:20.321Z,22.50
2022-07-27T04:14:20.259Z,22.50
2022-07-27T04:15:20.215Z,22.50
2022-07-27T04:16:20.172Z,28.13
2022-07-27T04:17:54.478Z,28.13
2022-07-27T04:18:20.009Z,28.13
2022-07-27T04:19:19.948Z,28.13
2022-07-27T04:20:19.886Z,28.13
2022-07-27T04:21:19.831Z,28.13
2022-07-27T04:22:19.772Z,28.13
2022-07-27T04:23:19.703Z,28.13
2022-07-27T04:24:19.643Z,28.13
2022-07-27T04:25:19.578Z,28.13
2022-07-27T04:26:19.516Z,28.13
2022-07-27T04:27:19.452Z,28.13
2022-07-27T04:28:19.434Z,28.13
2022-07-27T04:29:20.722Z,28.13
2022-07-27T04:30:19.267Z,28.13
2022-07-27T04:31:19.266Z,28.13
2022-07-27T04:32:19.143Z,28.13
2022-07-27T04:33:19.082Z,28.13
2022-07-27T04:34:19.021Z,28.13
2022-07-27T04:35:22.764Z,28.13
2022-07-27T04:36:18.893Z,28.13
2022-07-27T04:37:18.838Z,28.13
2022-07-27T04:38:18.767Z,33.75
2022-07-27T04:39:18.710Z,33.75
2022-07-27T04:40:18.668Z,33.75
2022-07-27T04:41:18.584Z,33.75
2022-07-27T04:42:18.522Z,33.75
2022-07-27T04:43:18.463Z,39.38
2022-07-27T04:44:18.396Z,39.38
2022-07-27T04:45:18.338Z,39.38
2022-07-27T04:46:18.340Z,45.00
2022-07-27T04:47:18.223Z,45.00
2022-07-27T04:48:18.151Z,45.00
2022-07-27T04:49:18.123Z,45.00
2022-07-27T04:50:18.028Z,45.00
2022-07-27T04:51:17.979Z,50.63
2022-07-27T04:52:17.903Z,50.63
2022-07-27T04:53:17.846Z,50.63
2022-07-27T04:54:17.778Z,50.63
2022-07-27T04:55:17.721Z,56.25
2022-07-27T04:56:17.654Z,56.25
2022-07-27T04:57:17.606Z,56.25
2022-07-27T04:58:17.545Z,61.88
2022-07-27T04:59:17.473Z,61.88
2022-07-27T05:00:17.416Z,61.88
2022-07-27T05:01:17.421Z,67.50
2022-07-27T05:02:17.287Z,78.75
2022-07-27T05:03:17.238Z,84.38
2022-07-27T05:04:17.284Z,95.63
2022-07-27T05:05:17.108Z,101.25
2022-07-27T05:06:17.035Z,112.50
2022-07-27T05:07:16.979Z,112.50
2022-07-27T05:08:16.920Z,140.63
2022-07-27T05:09:16.862Z,157.50
2022-07-27T05:10:20.406Z,174.38
2022-07-27T05:11:16.731Z,196.88
2022-07-27T05:12:16.666Z,208.13
2022-07-27T05:13:16.607Z,236.25
2022-07-27T05:14:16.545Z,258.75
2022-07-27T05:15:16.488Z,281.25
2022-07-27T05:16:16.453Z,281.25
2022-07-27T05:17:16.367Z,331.88
2022-07-27T05:18:16.296Z,354.38
2022-07-27T05:19:16.244Z,303.75
2022-07-27T05:20:16.175Z,219.38
2022-07-27T05:21:16.118Z,331.88
2022-07-27T05:22:16.052Z,365.63
2022-07-27T05:23:15.996Z,129.38
2022-07-27T05:24:15.934Z,90.00
2022-07-27T05:25:15.876Z,90.00
2022-07-27T05:26:15.809Z,90.00
2022-07-27T05:27:15.753Z,90.00
2022-07-27T05:28:15.689Z,112.50
2022-07-27T05:29:15.855Z,112.50
2022-07-27T05:30:15.591Z,90.00
2022-07-27T05:31:15.587Z,84.38
2022-07-27T05:32:15.534Z,95.63
2022-07-27T05:33:15.391Z,129.38
2022-07-27T05:34:15.327Z,101.25
2022-07-27T05:35:15.278Z,101.25
2022-07-27T05:36:15.230Z,135.00
2022-07-27T05:37:15.161Z,163.13
2022-07-27T05:38:15.101Z,320.63
2022-07-27T05:39:15.555Z,376.88
2022-07-27T05:40:15.044Z,371.25
2022-07-27T05:41:14.905Z,376.88
2022-07-27T05:42:14.845Z,382.50
2022-07-27T05:43:14.801Z,376.88
2022-07-27T05:44:14.724Z,382.50
2022-07-27T05:45:14.673Z,270.00
2022-07-27T05:46:14.649Z,309.38
2022-07-27T05:47:14.543Z,388.13
2022-07-27T05:48:14.513Z,382.50
2022-07-27T05:49:15.010Z,388.13
2022-07-27T05:50:14.375Z,388.13
2022-07-27T05:51:14.308Z,388.13
2022-07-27T05:52:14.243Z,393.75
2022-07-27T05:53:14.200Z,399.38
2022-07-27T05:54:14.124Z,399.38
2022-07-27T05:55:14.070Z,410.63
2022-07-27T05:56:14.007Z,405.00
2022-07-27T05:57:13.968Z,410.63
2022-07-27T05:58:13.888Z,410.63
2022-07-27T05:59:14.104Z,410.63
2022-07-27T06:00:13.772Z,410.63
2022-07-27T06:01:13.756Z,410.63
2022-07-27T06:02:13.660Z,410.63
2022-07-27T06:03:13.652Z,410.63
2022-07-27T06:04:14.735Z,416.25
2022-07-27T06:05:17.352Z,416.25
2022-07-27T06:06:13.426Z,416.25
2022-07-27T06:07:13.360Z,421.88
2022-07-27T06:08:13.300Z,421.88
2022-07-27T06:09:13.652Z,421.88
2022-07-27T06:10:13.185Z,421.88
2022-07-27T06:11:13.127Z,421.88
2022-07-27T06:12:13.071Z,427.50
2022-07-27T06:13:13.013Z,427.50
2022-07-27T06:14:12.954Z,438.75
2022-07-27T06:15:12.898Z,433.13
2022-07-27T06:16:12.924Z,433.13
2022-07-27T06:17:12.778Z,433.13
2022-07-27T06:18:12.717Z,438.75
2022-07-27T06:19:13.125Z,444.38
2022-07-27T06:20:12.606Z,450.00
2022-07-27T06:21:12.548Z,450.00
2022-07-27T06:22:12.486Z,450.00
2022-07-27T06:23:12.430Z,450.00
2022-07-27T06:24:12.372Z,455.63
2022-07-27T06:25:12.329Z,461.25
2022-07-27T06:26:12.254Z,461.25
2022-07-27T06:27:12.203Z,466.88
2022-07-27T06:28:12.151Z,472.50
2022-07-27T06:29:12.434Z,466.88
2022-07-27T06:30:12.106Z,466.88
2022-07-27T06:31:11.994Z,455.63
2022-07-27T06:32:11.996Z,472.50
2022-07-27T06:33:11.865Z,472.50
2022-07-27T06:34:12.113Z,472.50
2022-07-27T06:35:12.579Z,478.13
2022-07-27T06:36:11.682Z,483.75
2022-07-27T06:37:11.626Z,478.13
2022-07-27T06:38:11.570Z,438.75
2022-07-27T06:39:11.843Z,500.63
2022-07-27T06:40:11.453Z,444.38
2022-07-27T06:41:11.414Z,354.38
2022-07-27T06:42:11.338Z,292.50
2022-07-27T06:43:11.282Z,270.00
2022-07-27T06:44:11.218Z,315.00
2022-07-27T06:45:11.165Z,393.75
2022-07-27T06:46:11.108Z,489.38
2022-07-27T06:47:11.103Z,444.38
2022-07-27T06:48:10.996Z,466.88
2022-07-27T06:49:11.313Z,371.25
2022-07-27T06:50:10.876Z,275.63
2022-07-27T06:51:10.828Z,258.75
2022-07-27T06:52:10.764Z,202.50
2022-07-27T06:53:10.708Z,168.75
2022-07-27T06:54:10.665Z,157.50
2022-07-27T06:55:10.592Z,157.50
2022-07-27T06:56:10.537Z,163.13
2022-07-27T06:57:10.478Z,163.13
2022-07-27T06:58:10.418Z,163.13
2022-07-27T06:59:10.670Z,174.38
2022-07-27T07:00:10.313Z,196.88
2022-07-27T07:01:10.289Z,202.50
2022-07-27T07:02:10.192Z,208.13
2022-07-27T07:03:10.132Z,275.63
2022-07-27T07:04:10.138Z,191.25
2022-07-27T07:05:10.081Z,208.13
2022-07-27T07:06:10.044Z,219.38
2022-07-27T07:07:09.944Z,225.00
2022-07-27T07:08:09.888Z,230.63
2022-07-27T07:09:10.347Z,225.00
2022-07-27T07:10:09.724Z,225.00
2022-07-27T07:11:09.674Z,185.63
2022-07-27T07:12:09.614Z,146.25
2022-07-27T07:13:09.556Z,135.00
2022-07-27T07:14:09.498Z,123.75
2022-07-27T07:15:09.437Z,118.13
2022-07-27T07:16:09.455Z,123.75
2022-07-27T07:17:09.400Z,157.50
2022-07-27T07:18:09.262Z,168.75
2022-07-27T07:19:09.421Z,219.38
2022-07-27T07:20:09.145Z,236.25
2022-07-27T07:21:09.088Z,236.25
2022-07-27T07:22:09.029Z,247.50
2022-07-27T07:23:08.979Z,253.13
2022-07-27T07:24:08.916Z,253.13
2022-07-27T07:25:08.858Z,286.88
2022-07-27T07:26:08.799Z,275.63
2022-07-27T07:27:08.741Z,292.50
2022-07-27T07:28:08.681Z,264.38
2022-07-27T07:29:08.798Z,241.88
2022-07-27T07:30:08.600Z,230.63
2022-07-27T07:31:08.564Z,241.88
2022-07-27T07:32:08.450Z,225.00
2022-07-27T07:33:08.393Z,247.50
2022-07-27T07:34:08.334Z,219.38
2022-07-27T07:35:08.305Z,208.13
2022-07-27T07:36:11.941Z,236.25
2022-07-27T07:37:08.162Z,230.63
2022-07-27T07:38:08.100Z,247.50
2022-07-27T07:39:08.045Z,213.75
2022-07-27T07:40:40.062Z,270.00
2022-07-27T07:41:07.941Z,219.38
2022-07-27T07:42:10.956Z,213.75
2022-07-27T07:43:07.809Z,202.50
2022-07-27T07:44:07.752Z,208.13
2022-07-27T07:45:07.695Z,202.50
2022-07-27T07:46:07.658Z,191.25
2022-07-27T07:47:07.626Z,174.38
2022-07-27T07:48:07.527Z,174.38
2022-07-27T07:49:07.503Z,168.75
2022-07-27T07:50:08.591Z,157.50
2022-07-27T07:51:07.409Z,123.75
2022-07-27T07:52:07.380Z,106.88
2022-07-27T07:53:07.256Z,101.25
2022-07-27T07:54:07.224Z,101.25
2022-07-27T07:55:08.432Z,101.25
2022-07-27T07:56:07.086Z,101.25
2022-07-27T07:57:07.451Z,95.63
2022-07-27T07:58:07.023Z,84.38
2022-07-27T07:59:06.957Z,78.75
2022-07-27T08:00:06.920Z,73.13
2022-07-27T08:01:06.795Z,61.88
2022-07-27T08:02:06.812Z,61.88
2022-07-27T08:03:06.781Z,61.88
2022-07-27T08:04:06.644Z,61.88
2022-07-27T08:05:06.578Z,67.50
2022-07-27T08:06:06.549Z,67.50
2022-07-27T08:07:06.453Z,67.50
2022-07-27T08:08:06.492Z,73.13
2022-07-27T08:09:06.702Z,84.38
2022-07-27T08:10:06.305Z,101.25
2022-07-27T08:11:06.207Z,118.13
2022-07-27T08:12:06.179Z,123.75
2022-07-27T08:13:08.220Z,123.75
2022-07-27T08:14:06.085Z,123.75
2022-07-27T08:15:06.018Z,140.63
2022-07-27T08:16:06.028Z,123.75
2022-07-27T08:17:06.510Z,112.50
2022-07-27T08:18:05.955Z,95.63
2022-07-27T08:19:05.815Z,84.38
2022-07-27T08:20:05.715Z,78.75
2022-07-27T08:21:05.722Z,73.13
2022-07-27T08:22:05.555Z,67.50
2022-07-27T08:23:05.562Z,73.13
2022-07-27T08:24:05.467Z,84.38
2022-07-27T08:25:05.446Z,101.25
2022-07-27T08:26:08.021Z,123.75
2022-07-27T08:27:05.280Z,180.00
2022-07-27T08:28:05.256Z,247.50
2022-07-27T08:29:11.377Z,247.50
2022-07-27T08:30:05.196Z,208.13
2022-07-27T08:31:14.162Z,298.13
2022-07-27T08:32:05.945Z,225.00
2022-07-27T08:33:05.080Z,388.13
2022-07-27T08:34:04.917Z,376.88
2022-07-27T08:35:04.889Z,410.63
2022-07-27T08:36:04.794Z,225.00
2022-07-27T08:37:04.733Z,365.63
2022-07-27T08:38:04.701Z,196.88
2022-07-27T08:39:04.605Z,354.38
2022-07-27T08:41:04.809Z,360.00
2022-07-27T08:42:04.420Z,489.38
2022-07-27T08:43:05.231Z,410.63
2022-07-27T08:44:04.368Z,444.38
2022-07-27T08:45:04.207Z,438.75
2022-07-27T08:46:04.824Z,354.38
2022-07-27T08:47:04.216Z,286.88
2022-07-27T08:48:04.052Z,202.50
2022-07-27T08:49:04.091Z,157.50
2022-07-27T08:50:04.059Z,135.00
2022-07-27T08:51:03.946Z,129.38
2022-07-27T08:52:03.802Z,219.38
2022-07-27T08:53:03.775Z,185.63
2022-07-27T08:54:03.905Z,140.63
2022-07-27T08:55:03.681Z,174.38
2022-07-27T08:56:03.621Z,225.00
2022-07-27T08:57:03.594Z,123.75
2022-07-27T08:58:04.113Z,106.88
2022-07-27T08:59:03.438Z,95.63
2022-07-27T09:00:03.428Z,90.00
2022-07-27T09:01:03.308Z,84.38
2022-07-27T09:02:03.764Z,78.75
2022-07-27T09:03:03.619Z,78.75
2022-07-27T09:04:03.156Z,73.13
2022-07-27T09:05:03.132Z,78.75
2022-07-27T09:06:03.037Z,84.38
2022-07-27T09:07:02.970Z,84.38
2022-07-27T09:08:02.960Z,84.38
2022-07-27T09:09:04.323Z,90.00
2022-07-27T09:10:02.784Z,95.63
2022-07-27T09:11:06.206Z,106.88
2022-07-27T09:12:02.699Z,123.75
2022-07-27T09:13:02.669Z,151.88
2022-07-27T09:14:02.570Z,157.50
2022-07-27T09:15:02.509Z,174.38
2022-07-27T09:16:17.643Z,247.50
2022-07-27T09:18:02.357Z,168.75
2022-07-27T09:19:02.333Z,185.63
2022-07-27T09:20:02.341Z,196.88
2022-07-27T09:21:04.462Z,219.38
2022-07-27T09:22:02.118Z,213.75
2022-07-27T09:23:02.048Z,202.50
2022-07-27T09:24:02.031Z,157.50
2022-07-27T09:25:01.938Z,196.88
2022-07-27T09:26:04.776Z,146.25
2022-07-27T09:27:04.502Z,157.50
2022-07-27T09:28:01.838Z,157.50
2022-07-27T09:29:01.854Z,157.50
2022-07-27T09:30:03.913Z,157.50
2022-07-27T09:31:01.609Z,236.25
2022-07-27T09:32:01.700Z,292.50
2022-07-27T09:33:01.724Z,202.50
2022-07-27T09:34:01.981Z,303.75
2022-07-27T09:35:01.382Z,281.25
2022-07-27T09:36:01.460Z,236.25
2022-07-27T09:37:01.214Z,185.63
2022-07-27T09:38:01.201Z,174.38
2022-07-27T09:39:02.787Z,416.25
2022-07-27T09:40:01.121Z,180.00
2022-07-27T09:41:01.011Z,174.38
2022-07-27T09:42:01.300Z,315.00
2022-07-27T09:43:14.488Z,225.00
2022-07-27T09:45:00.821Z,163.13
2022-07-27T09:46:00.824Z,151.88
2022-07-27T09:47:00.766Z,135.00
2022-07-27T09:48:00.645Z,118.13
2022-07-27T09:49:00.616Z,106.88
2022-07-27T09:50:02.221Z,95.63
2022-07-27T09:51:02.687Z,90.00
2022-07-27T09:52:03.341Z,84.38
2022-07-27T09:53:00.290Z,78.75
2022-07-27T09:54:00.280Z,73.13
2022-07-27T09:55:00.201Z,73.13
2022-07-27T09:56:00.186Z,73.13
2022-07-27T09:57:00.107Z,78.75
2022-07-27T09:58:00.013Z,78.75
2022-07-27T09:58:59.991Z,84.38
2022-07-27T09:59:59.992Z,84.38
2022-07-27T10:00:59.908Z,90.00
2022-07-27T10:01:59.854Z,90.00
2022-07-27T10:03:00.055Z,95.63
2022-07-27T10:03:59.729Z,106.88
2022-07-27T10:04:59.712Z,112.50
2022-07-27T10:05:59.550Z,118.13
2022-07-27T10:07:04.649Z,129.38
2022-07-27T10:07:59.460Z,140.63
2022-07-27T10:08:59.442Z,151.88
2022-07-27T10:09:59.350Z,146.25
2022-07-27T10:10:59.276Z,146.25
2022-07-27T10:11:59.259Z,140.63
2022-07-27T10:12:59.159Z,140.63
2022-07-27T10:13:59.088Z,140.63
2022-07-27T10:14:59.080Z,140.63
2022-07-27T10:15:59.052Z,146.25
2022-07-27T10:16:58.972Z,140.63
2022-07-27T10:17:59.212Z,157.50
2022-07-27T10:18:58.767Z,140.63
2022-07-27T10:19:58.793Z,129.38
2022-07-27T10:20:58.717Z,123.75
2022-07-27T10:21:58.731Z,123.75
2022-07-27T10:22:59.281Z,129.38
2022-07-27T10:23:58.546Z,129.38
2022-07-27T10:24:58.518Z,140.63
2022-07-27T10:26:00.898Z,157.50
2022-07-27T10:26:58.419Z,157.50
2022-07-27T10:27:58.424Z,151.88
2022-07-27T10:29:00.193Z,151.88
2022-07-27T10:29:58.233Z,140.63
2022-07-27T10:30:58.174Z,135.00
2022-07-27T10:31:58.204Z,129.38
2022-07-27T10:32:57.980Z,123.75
2022-07-27T10:33:57.958Z,123.75
2022-07-27T10:34:57.914Z,123.75
2022-07-27T10:35:57.872Z,123.75
2022-07-27T10:36:57.779Z,135.00
2022-07-27T10:37:57.808Z,146.25
2022-07-27T10:38:57.694Z,140.63
2022-07-27T10:39:57.584Z,151.88
2022-07-27T10:40:57.485Z,157.50
2022-07-27T10:41:57.518Z,168.75
2022-07-27T10:42:57.413Z,185.63
2022-07-27T10:43:57.407Z,185.63
2022-07-27T10:44:57.305Z,258.75
2022-07-27T10:46:02.117Z,185.63
2022-07-27T10:46:57.220Z,281.25
2022-07-27T10:47:57.130Z,191.25
2022-07-27T10:48:57.125Z,185.63
2022-07-27T10:49:57.036Z,180.00
2022-07-27T10:50:56.948Z,236.25
2022-07-27T10:51:56.937Z,163.13
2022-07-27T10:52:56.861Z,151.88
2022-07-27T10:54:11.891Z,146.25
2022-07-27T10:54:59.958Z,140.63
2022-07-27T10:55:56.659Z,135.00
2022-07-27T10:56:56.593Z,140.63
2022-07-27T10:57:56.576Z,135.00
2022-07-27T10:58:56.480Z,123.75
2022-07-27T11:00:16.270Z,129.38
2022-07-27T11:00:56.420Z,135.00
2022-07-27T11:01:56.380Z,123.75
2022-07-27T11:02:56.446Z,118.13
2022-07-27T11:03:56.421Z,118.13
2022-07-27T11:04:56.133Z,118.13
2022-07-27T11:06:04.801Z,118.13
2022-07-27T11:07:23.696Z,140.63
2022-07-27T11:08:34.480Z,331.88
2022-07-27T11:09:27.331Z,354.38
2022-07-27T11:10:04.725Z,388.13
2022-07-27T11:10:55.864Z,185.63
2022-07-27T11:11:55.764Z,241.88
2022-07-27T11:12:55.759Z,236.25
2022-07-27T11:13:55.783Z,185.63
2022-07-27T11:14:55.563Z,202.50
2022-07-27T11:16:09.789Z,174.38
2022-07-27T11:16:58.940Z,163.13
2022-07-27T11:18:02.212Z,151.88
2022-07-27T11:18:55.404Z,140.63
2022-07-27T11:19:55.288Z,146.25
2022-07-27T11:20:55.212Z,146.25
2022-07-27T11:21:55.204Z,174.38
2022-07-27T11:23:55.104Z,151.88
2022-07-27T11:24:55.010Z,140.63
2022-07-27T11:25:54.939Z,135.00
2022-07-27T11:26:54.846Z,129.38
2022-07-27T11:27:54.820Z,118.13
2022-07-27T11:28:54.755Z,112.50
2022-07-27T11:29:54.822Z,112.50
2022-07-27T11:30:54.726Z,106.88
2022-07-27T11:31:57.734Z,101.25
2022-07-27T11:32:54.571Z,95.63
2022-07-27T11:33:54.544Z,95.63
2022-07-27T11:34:54.455Z,95.63
2022-07-27T11:35:54.359Z,101.25
2022-07-27T11:36:54.289Z,106.88
2022-07-27T11:37:54.272Z,112.50
2022-07-27T11:38:54.270Z,118.13
2022-07-27T11:40:00.282Z,118.13
2022-07-27T11:40:59.407Z,123.75
2022-07-27T11:42:09.055Z,135.00
2022-07-27T11:42:53.925Z,163.13
2022-07-27T11:43:53.904Z,151.88
2022-07-27T11:44:53.897Z,174.38
2022-07-27T11:45:53.865Z,168.75
2022-07-27T11:46:56.299Z,163.13
2022-07-27T11:47:53.689Z,163.13
2022-07-27T11:49:06.769Z,157.50
2022-07-27T11:49:53.662Z,157.50
2022-07-27T11:50:53.552Z,151.88
2022-07-27T11:51:53.438Z,140.63
2022-07-27T11:52:56.124Z,135.00
2022-07-27T11:53:53.377Z,129.38
2022-07-27T11:54:53.282Z,135.00
2022-07-27T11:55:53.287Z,123.75
2022-07-27T11:56:53.162Z,123.75
2022-07-27T11:57:53.092Z,129.38
2022-07-27T11:58:53.083Z,135.00
2022-07-27T11:59:52.977Z,140.63
2022-07-27T12:00:52.906Z,146.25
2022-07-27T12:01:52.947Z,146.25
2022-07-27T12:02:52.800Z,151.88
2022-07-27T12:03:52.824Z,151.88
2022-07-27T12:04:52.748Z,151.88
2022-07-27T12:05:52.635Z,151.88
2022-07-27T12:06:52.627Z,146.25
2022-07-27T12:07:52.519Z,151.88
2022-07-27T12:08:52.451Z,146.25
2022-07-27T12:09:52.445Z,146.25
2022-07-27T12:10:52.337Z,140.63
2022-07-27T12:11:52.344Z,140.63
2022-07-27T12:12:52.335Z,140.63
2022-07-27T12:13:52.174Z,140.63
2022-07-27T12:14:52.171Z,135.00
2022-07-27T12:15:52.058Z,129.38
2022-07-27T12:16:53.162Z,129.38
2022-07-27T12:17:51.995Z,129.38
2022-07-27T12:18:51.879Z,129.38
2022-07-27T12:19:51.889Z,129.38
2022-07-27T12:20:51.791Z,129.38
2022-07-27T12:21:51.777Z,135.00
2022-07-27T12:22:51.701Z,135.00
2022-07-27T12:23:51.599Z,140.63
2022-07-27T12:24:51.591Z,146.25
2022-07-27T12:25:51.522Z,157.50
2022-07-27T12:26:51.440Z,157.50
2022-07-27T12:27:51.341Z,151.88
2022-07-27T12:28:51.331Z,146.25
2022-07-27T12:29:51.249Z,151.88
2022-07-27T12:30:51.321Z,140.63
2022-07-27T12:31:51.128Z,140.63
2022-07-27T12:32:55.339Z,146.25
2022-07-27T12:33:54.811Z,146.25
2022-07-27T12:34:50.946Z,151.88
2022-07-27T12:35:50.949Z,146.25
2022-07-27T12:36:50.854Z,151.88
2022-07-27T12:37:50.793Z,140.63
2022-07-27T12:38:50.864Z,135.00
2022-07-27T12:39:50.693Z,135.00
2022-07-27T12:40:51.014Z,140.63
2022-07-27T12:41:50.586Z,135.00
2022-07-27T12:42:50.495Z,129.38
2022-07-27T12:43:50.502Z,129.38
2022-07-27T12:44:50.396Z,118.13
2022-07-27T12:45:50.400Z,112.50
2022-07-27T12:46:50.305Z,112.50
2022-07-27T12:47:50.747Z,112.50
2022-07-27T12:48:50.213Z,112.50
2022-07-27T12:49:50.126Z,112.50
2022-07-27T12:50:50.042Z,118.13